sensor_id;sensor_type;location;lat;lon;timestamp;pressure;altitude;pressure_sealevel;temperature;humidity
72548;BME280;60570;50.848;6.776;2023-03-19T00:00:17;100114.47;;;14.40;59.99
72548;BME280;60570;50.848;6.776;2023-03-19T00:01:18;100116.28;;;14.32;60.15
72548;BME280;60570;50.848;6.776;2023-03-19T00:02:19;100114.47;;;14.40;60.01
72548;BME280;60570;50.848;6.776;2023-03-19T00:03:19;100110.91;;;14.43;59.96
72548;BME280;60570;50.848;6.776;2023-03-19T00:04:20;100108.06;;;14.39;59.90
72548;BME280;60570;50.848;6.776;2023-03-19T00:05:21;100106.06;;;14.40;59.96
72548;BME280;60570;50.848;6.776;2023-03-19T00:06:21;100105.81;;;14.48;59.61
72548;BME280;60570;50.848;6.776;2023-03-19T00:07:22;100110.97;;;14.46;60.03
72548;BME280;60570;50.848;6.776;2023-03-19T00:08:22;100104.06;;;14.40;60.00
72548;BME280;60570;50.848;6.776;2023-03-19T00:09:22;100106.13;;;14.43;59.76
72548;BME280;60570;50.848;6.776;2023-03-19T00:10:23;100109.91;;;14.54;59.28
72548;BME280;60570;50.848;6.776;2023-03-19T00:11:23;100117.25;;;14.40;59.85
72548;BME280;60570;50.848;6.776;2023-03-19T00:12:23;100108.56;;;14.45;59.60
72548;BME280;60570;50.848;6.776;2023-03-19T00:13:24;100108.44;;;14.38;60.01
72548;BME280;60570;50.848;6.776;2023-03-19T00:14:24;100107.75;;;14.44;59.73
72548;BME280;60570;50.848;6.776;2023-03-19T00:15:25;100104.81;;;14.37;59.76
72548;BME280;60570;50.848;6.776;2023-03-19T00:16:25;100108.34;;;14.34;60.02
72548;BME280;60570;50.848;6.776;2023-03-19T00:17:26;100108.72;;;14.32;60.17
72548;BME280;60570;50.848;6.776;2023-03-19T00:18:26;100105.69;;;14.41;59.89
72548;BME280;60570;50.848;6.776;2023-03-19T00:19:27;100109.66;;;14.40;59.93
72548;BME280;60570;50.848;6.776;2023-03-19T00:20:27;100108.06;;;14.39;60.01
72548;BME280;60570;50.848;6.776;2023-03-19T00:21:28;100118.03;;;14.40;59.94
72548;BME280;60570;50.848;6.776;2023-03-19T00:22:28;100105.44;;;14.50;59.40
72548;BME280;60570;50.848;6.776;2023-03-19T00:23:28;100112.59;;;14.47;59.43
72548;BME280;60570;50.848;6.776;2023-03-19T00:24:29;100113.94;;;14.34;60.02
72548;BME280;60570;50.848;6.776;2023-03-19T00:25:29;100128.28;;;14.32;59.97
72548;BME280;60570;50.848;6.776;2023-03-19T00:26:31;100116.28;;;14.32;59.96
72548;BME280;60570;50.848;6.776;2023-03-19T00:27:31;100126.69;;;14.31;59.80
72548;BME280;60570;50.848;6.776;2023-03-19T00:28:32;100129.31;;;14.44;59.90
72548;BME280;60570;50.848;6.776;2023-03-19T00:29:32;100124.13;;;14.26;60.04
72548;BME280;60570;50.848;6.776;2023-03-19T00:30:33;100125.84;;;14.31;59.99
72548;BME280;60570;50.848;6.776;2023-03-19T00:31:33;100122.91;;;14.43;59.66
72548;BME280;60570;50.848;6.776;2023-03-19T00:32:34;100109.59;;;14.36;59.89
72548;BME280;60570;50.848;6.776;2023-03-19T00:33:35;100116.50;;;14.43;59.54
72548;BME280;60570;50.848;6.776;2023-03-19T00:34:36;100113.16;;;14.33;59.61
72548;BME280;60570;50.848;6.776;2023-03-19T00:35:37;100121.22;;;14.38;59.66
72548;BME280;60570;50.848;6.776;2023-03-19T00:36:38;100108.06;;;14.39;59.49
72548;BME280;60570;50.848;6.776;2023-03-19T00:37:38;100112.44;;;14.40;59.52
72548;BME280;60570;50.848;6.776;2023-03-19T00:38:39;100105.75;;;14.45;59.50
72548;BME280;60570;50.848;6.776;2023-03-19T00:39:39;100112.72;;;14.31;59.54
72548;BME280;60570;50.848;6.776;2023-03-19T00:40:40;100107.19;;;14.35;60.00
72548;BME280;60570;50.848;6.776;2023-03-19T00:41:40;100112.00;;;14.38;59.80
72548;BME280;60570;50.848;6.776;2023-03-19T00:42:40;100109.53;;;14.33;59.80
72548;BME280;60570;50.848;6.776;2023-03-19T00:43:43;100111.72;;;14.43;59.59
72548;BME280;60570;50.848;6.776;2023-03-19T00:44:44;100108.94;;;14.43;59.55
72548;BME280;60570;50.848;6.776;2023-03-19T00:45:44;100112.88;;;14.42;59.48
72548;BME280;60570;50.848;6.776;2023-03-19T00:46:45;100105.38;;;14.46;59.43
72548;BME280;60570;50.848;6.776;2023-03-19T00:47:46;100106.56;;;14.45;59.38
72548;BME280;60570;50.848;6.776;2023-03-19T00:48:46;100110.91;;;14.43;59.45
72548;BME280;60570;50.848;6.776;2023-03-19T00:49:47;100109.75;;;14.44;59.44
72548;BME280;60570;50.848;6.776;2023-03-19T00:50:47;100100.09;;;14.41;59.60
72548;BME280;60570;50.848;6.776;2023-03-19T00:51:48;100100.78;;;14.34;59.67
72548;BME280;60570;50.848;6.776;2023-03-19T00:52:48;100104.06;;;14.40;59.22
72548;BME280;60570;50.848;6.776;2023-03-19T00:53:49;100105.31;;;14.43;59.47
72548;BME280;60570;50.848;6.776;2023-03-19T00:54:49;100103.28;;;14.40;59.48
72548;BME280;60570;50.848;6.776;2023-03-19T00:55:50;100105.38;;;14.27;59.71
72548;BME280;60570;50.848;6.776;2023-03-19T00:56:50;100111.13;;;14.34;59.41
72548;BME280;60570;50.848;6.776;2023-03-19T00:57:51;100110.41;;;14.37;59.34
72548;BME280;60570;50.848;6.776;2023-03-19T00:58:51;100108.94;;;14.43;59.44
72548;BME280;60570;50.848;6.776;2023-03-19T00:59:51;100115.34;;;14.44;59.16
72548;BME280;60570;50.848;6.776;2023-03-19T01:00:52;100114.03;;;14.38;59.18
72548;BME280;60570;50.848;6.776;2023-03-19T01:01:52;100110.84;;;14.39;59.38
72548;BME280;60570;50.848;6.776;2023-03-19T01:02:53;100114.03;;;14.38;59.27
72548;BME280;60570;50.848;6.776;2023-03-19T01:03:53;100115.34;;;14.44;59.26
72548;BME280;60570;50.848;6.776;2023-03-19T01:04:53;100113.66;;;14.39;59.23
72548;BME280;60570;50.848;6.776;2023-03-19T01:05:54;100110.84;;;14.39;59.32
72548;BME280;60570;50.848;6.776;2023-03-19T01:06:54;100111.28;;;14.41;59.29
72548;BME280;60570;50.848;6.776;2023-03-19T01:07:55;100111.50;;;14.32;59.70
72548;BME280;60570;50.848;6.776;2023-03-19T01:08:55;100109.16;;;14.34;59.51
72548;BME280;60570;50.848;6.776;2023-03-19T01:09:55;100118.84;;;14.41;59.24
72548;BME280;60570;50.848;6.776;2023-03-19T01:11:03;100115.50;;;14.31;59.50
72548;BME280;60570;50.848;6.776;2023-03-19T01:12:03;100117.97;;;14.36;59.27
72548;BME280;60570;50.848;6.776;2023-03-19T01:13:04;100117.16;;;14.36;59.37
72548;BME280;60570;50.848;6.776;2023-03-19T01:14:04;100115.19;;;14.36;59.16
72548;BME280;60570;50.848;6.776;2023-03-19T01:15:06;100117.97;;;14.36;59.29
72548;BME280;60570;50.848;6.776;2023-03-19T01:16:06;100108.78;;;14.36;59.17
72548;BME280;60570;50.848;6.776;2023-03-19T01:17:07;100116.00;;;14.37;59.33
72548;BME280;60570;50.848;6.776;2023-03-19T01:18:08;100114.38;;;14.36;59.47
72548;BME280;60570;50.848;6.776;2023-03-19T01:19:08;100113.59;;;14.35;59.23
72548;BME280;60570;50.848;6.776;2023-03-19T01:20:09;100115.19;;;14.36;59.42
72548;BME280;60570;50.848;6.776;2023-03-19T01:21:12;100118.34;;;14.35;59.08
72548;BME280;60570;50.848;6.776;2023-03-19T01:22:13;100115.50;;;14.31;59.25
72548;BME280;60570;50.848;6.776;2023-03-19T01:23:15;100111.50;;;14.32;59.28
72548;BME280;60570;50.848;6.776;2023-03-19T01:24:16;100111.13;;;14.34;59.07
72548;BME280;60570;50.848;6.776;2023-03-19T01:25:16;100110.34;;;14.33;59.13
72548;BME280;60570;50.848;6.776;2023-03-19T01:26:16;100109.09;;;14.31;59.13
72548;BME280;60570;50.848;6.776;2023-03-19T01:27:17;100112.72;;;14.31;59.45
72548;BME280;60570;50.848;6.776;2023-03-19T01:28:17;100115.94;;;14.33;59.12
72548;BME280;60570;50.848;6.776;2023-03-19T01:29:18;100113.16;;;14.33;59.18
72548;BME280;60570;50.848;6.776;2023-03-19T01:30:18;100109.47;;;14.29;59.30
72548;BME280;60570;50.848;6.776;2023-03-19T01:31:19;100124.94;;;14.27;59.61
72548;BME280;60570;50.848;6.776;2023-03-19T01:32:20;100121.47;;;14.30;59.31
72548;BME280;60570;50.848;6.776;2023-03-19T01:33:22;100108.66;;;14.29;59.25
72548;BME280;60570;50.848;6.776;2023-03-19T01:34:22;100113.78;;;14.27;59.45
72548;BME280;60570;50.848;6.776;2023-03-19T01:35:23;100107.13;;;14.31;59.55
72548;BME280;60570;50.848;6.776;2023-03-19T01:36:23;100110.97;;;14.27;59.39
72548;BME280;60570;50.848;6.776;2023-03-19T01:37:23;100111.34;;;14.25;59.69
72548;BME280;60570;50.848;6.776;2023-03-19T01:38:24;100105.38;;;14.27;59.44
72548;BME280;60570;50.848;6.776;2023-03-19T01:39:24;100107.84;;;14.28;59.56
72548;BME280;60570;50.848;6.776;2023-03-19T01:40:25;100108.19;;;14.27;59.29
72548;BME280;60570;50.848;6.776;2023-03-19T01:41:25;100102.97;;;14.25;59.55
72548;BME280;60570;50.848;6.776;2023-03-19T01:42:26;100094.22;;;14.27;59.35
72548;BME280;60570;50.848;6.776;2023-03-19T01:43:27;100108.84;;;14.20;59.74
72548;BME280;60570;50.848;6.776;2023-03-19T01:44:35;100097.31;;;14.22;59.61
72548;BME280;60570;50.848;6.776;2023-03-19T01:45:36;100109.22;;;14.19;59.50
72548;BME280;60570;50.848;6.776;2023-03-19T01:46:36;100102.16;;;14.25;59.53
72548;BME280;60570;50.848;6.776;2023-03-19T01:47:38;100103.69;;;14.22;59.42
72548;BME280;60570;50.848;6.776;2023-03-19T01:48:43;100102.91;;;14.22;59.51
72548;BME280;60570;50.848;6.776;2023-03-19T01:49:46;100103.34;;;14.24;59.65
72548;BME280;60570;50.848;6.776;2023-03-19T01:50:49;100112.91;;;14.23;59.68
72548;BME280;60570;50.848;6.776;2023-03-19T01:51:52;100102.91;;;14.22;59.44
72548;BME280;60570;50.848;6.776;2023-03-19T01:52:54;100108.28;;;14.30;59.34
72548;BME280;60570;50.848;6.776;2023-03-19T01:53:56;100098.84;;;14.19;59.65
72548;BME280;60570;50.848;6.776;2023-03-19T01:54:58;100108.78;;;14.17;59.56
72548;BME280;60570;50.848;6.776;2023-03-19T01:56:03;100115.25;;;14.21;59.35
72548;BME280;60570;50.848;6.776;2023-03-19T01:57:06;100123.19;;;14.19;59.66
72548;BME280;60570;50.848;6.776;2023-03-19T01:58:07;100120.84;;;14.21;59.57
72548;BME280;60570;50.848;6.776;2023-03-19T02:00:21;100112.00;;;14.19;59.76
72548;BME280;60570;50.848;6.776;2023-03-19T02:01:22;100121.22;;;14.19;59.49
72548;BME280;60570;50.848;6.776;2023-03-19T02:02:24;100113.66;;;14.20;59.42
72548;BME280;60570;50.848;6.776;2023-03-19T02:03:26;100111.63;;;14.20;59.61
72548;BME280;60570;50.848;6.776;2023-03-19T02:04:26;100112.25;;;14.10;59.97
72548;BME280;60570;50.848;6.776;2023-03-19T02:05:28;100115.34;;;14.05;59.94
72548;BME280;60570;50.848;6.776;2023-03-19T02:06:29;100108.22;;;14.08;59.80
72548;BME280;60570;50.848;6.776;2023-03-19T02:07:31;100118.72;;;14.14;59.72
72548;BME280;60570;50.848;6.776;2023-03-19T02:08:32;100124.16;;;14.07;59.92
72548;BME280;60570;50.848;6.776;2023-03-19T02:09:34;100107.47;;;14.11;59.73
72548;BME280;60570;50.848;6.776;2023-03-19T02:10:35;100109.53;;;14.14;59.76
72548;BME280;60570;50.848;6.776;2023-03-19T02:11:36;100111.38;;;14.06;59.79
72548;BME280;60570;50.848;6.776;2023-03-19T02:12:37;100110.63;;;14.09;59.88
72548;BME280;60570;50.848;6.776;2023-03-19T02:13:37;100110.69;;;14.13;59.65
72548;BME280;60570;50.848;6.776;2023-03-19T02:14:37;100108.94;;;14.05;59.74
72548;BME280;60570;50.848;6.776;2023-03-19T02:15:38;100111.81;;;14.08;59.93
72548;BME280;60570;50.848;6.776;2023-03-19T02:16:39;100107.47;;;14.11;59.87
72548;BME280;60570;50.848;6.776;2023-03-19T02:17:39;100111.06;;;14.11;59.75
72548;BME280;60570;50.848;6.776;2023-03-19T02:18:40;100103.34;;;14.05;59.75
72548;BME280;60570;50.848;6.776;2023-03-19T02:19:59;100105.34;;;14.04;59.77
72548;BME280;60570;50.848;6.776;2023-03-19T02:21:10;100105.34;;;14.04;59.95
72548;BME280;60570;50.848;6.776;2023-03-19T02:22:12;100104.66;;;14.11;59.99
72548;BME280;60570;50.848;6.776;2023-03-19T02:23:19;100104.97;;;14.06;59.61
72548;BME280;60570;50.848;6.776;2023-03-19T02:24:25;100104.16;;;14.05;60.02
72548;BME280;60570;50.848;6.776;2023-03-19T02:25:29;100105.78;;;14.06;59.99
72548;BME280;60570;50.848;6.776;2023-03-19T02:26:32;100116.97;;;14.06;59.98
72548;BME280;60570;50.848;6.776;2023-03-19T02:27:32;100107.31;;;14.04;60.20
72548;BME280;60570;50.848;6.776;2023-03-19T02:28:33;100110.50;;;14.02;60.30
72548;BME280;60570;50.848;6.776;2023-03-19T02:29:36;100110.50;;;14.02;60.07
72548;BME280;60570;50.848;6.776;2023-03-19T02:30:37;100097.69;;;14.01;59.93
72548;BME280;60570;50.848;6.776;2023-03-19T02:31:37;100110.88;;;14.01;60.23
72548;BME280;60570;50.848;6.776;2023-03-19T02:32:37;100104.59;;;14.07;60.05
72548;BME280;60570;50.848;6.776;2023-03-19T02:33:38;100102.91;;;14.03;59.75
72548;BME280;60570;50.848;6.776;2023-03-19T02:34:39;100104.16;;;14.05;59.96
72548;BME280;60570;50.848;6.776;2023-03-19T02:35:40;100109.25;;;14.00;59.87
72548;BME280;60570;50.848;6.776;2023-03-19T02:36:42;100099.25;;;13.99;60.38
72548;BME280;60570;50.848;6.776;2023-03-19T02:37:43;100099.84;;;14.08;59.95
72548;BME280;60570;50.848;6.776;2023-03-19T02:38:43;100112.09;;;14.03;60.03
72548;BME280;60570;50.848;6.776;2023-03-19T02:40:47;100102.13;;;14.02;60.02
72548;BME280;60570;50.848;6.776;2023-03-19T02:41:48;100113.94;;;13.96;60.35
72548;BME280;60570;50.848;6.776;2023-03-19T02:42:50;100111.09;;;13.92;60.12
72548;BME280;60570;50.848;6.776;2023-03-19T02:43:51;100109.69;;;14.02;60.32
72548;BME280;60570;50.848;6.776;2023-03-19T02:44:52;100102.91;;;14.03;60.10
72548;BME280;60570;50.848;6.776;2023-03-19T02:45:53;100111.59;;;13.98;60.02
72548;BME280;60570;50.848;6.776;2023-03-19T02:46:53;100112.84;;;14.00;59.84
72548;BME280;60570;50.848;6.776;2023-03-19T02:47:54;100110.88;;;14.01;59.83
72548;BME280;60570;50.848;6.776;2023-03-19T02:48:54;100100.09;;;14.03;59.97
72548;BME280;60570;50.848;6.776;2023-03-19T02:49:55;100110.06;;;14.00;60.40
72548;BME280;60570;50.848;6.776;2023-03-19T02:50:55;100105.88;;;13.91;60.22
72548;BME280;60570;50.848;6.776;2023-03-19T02:51:55;100106.75;;;13.95;59.92
72548;BME280;60570;50.848;6.776;2023-03-19T02:52:56;100108.59;;;14.06;59.78
72548;BME280;60570;50.848;6.776;2023-03-19T02:53:56;100106.31;;;13.93;60.23
72548;BME280;60570;50.848;6.776;2023-03-19T02:54:57;100113.50;;;13.94;60.32
72548;BME280;60570;50.848;6.776;2023-03-19T02:55:57;100114.31;;;13.94;60.24
72548;BME280;60570;50.848;6.776;2023-03-19T02:56:57;100116.66;;;13.92;60.42
72548;BME280;60570;50.848;6.776;2023-03-19T02:57:58;100108.09;;;14.01;60.09
72548;BME280;60570;50.848;6.776;2023-03-19T02:58:58;100116.38;;;13.97;59.97
72548;BME280;60570;50.848;6.776;2023-03-19T02:59:58;100114.75;;;13.96;60.02
72548;BME280;60570;50.848;6.776;2023-03-19T03:00:59;100112.25;;;13.91;60.17
72548;BME280;60570;50.848;6.776;2023-03-19T03:01:59;100116.16;;;14.06;59.80
72548;BME280;60570;50.848;6.776;2023-03-19T03:03:00;100115.25;;;14.02;59.90
72548;BME280;60570;50.848;6.776;2023-03-19T03:04:00;100124.16;;;14.07;59.68
72548;BME280;60570;50.848;6.776;2023-03-19T03:05:01;100120.84;;;14.02;60.15
72548;BME280;60570;50.848;6.776;2023-03-19T03:06:01;100113.13;;;13.95;60.17
72548;BME280;60570;50.848;6.776;2023-03-19T03:07:02;100119.09;;;13.94;60.08
72548;BME280;60570;50.848;6.776;2023-03-19T03:08:03;100124.97;;;13.89;60.26
72548;BME280;60570;50.848;6.776;2023-03-19T03:09:03;100125.63;;;13.82;60.64
72548;BME280;60570;50.848;6.776;2023-03-19T03:10:04;100113.88;;;13.92;60.34
72548;BME280;60570;50.848;6.776;2023-03-19T03:11:04;100111.91;;;13.93;60.37
72548;BME280;60570;50.848;6.776;2023-03-19T03:12:05;100116.59;;;13.89;60.42
72548;BME280;60570;50.848;6.776;2023-03-19T03:13:06;100122.19;;;13.89;60.41
72548;BME280;60570;50.848;6.776;2023-03-19T03:14:06;100115.34;;;13.86;60.51
72548;BME280;60570;50.848;6.776;2023-03-19T03:15:07;100117.31;;;13.86;60.38
72548;BME280;60570;50.848;6.776;2023-03-19T03:16:07;100118.94;;;13.87;60.54
72548;BME280;60570;50.848;6.776;2023-03-19T03:17:08;100115.53;;;13.78;60.60
72548;BME280;60570;50.848;6.776;2023-03-19T03:18:08;100116.09;;;13.83;60.56
72548;BME280;60570;50.848;6.776;2023-03-19T03:19:08;100119.53;;;13.77;60.72
72548;BME280;60570;50.848;6.776;2023-03-19T03:20:09;100115.91;;;13.76;60.44
72548;BME280;60570;50.848;6.776;2023-03-19T03:21:10;100114.97;;;13.88;60.33
72548;BME280;60570;50.848;6.776;2023-03-19T03:22:10;100105.00;;;13.87;60.48
72548;BME280;60570;50.848;6.776;2023-03-19T03:23:11;100111.47;;;13.91;60.36
72548;BME280;60570;50.848;6.776;2023-03-19T03:24:11;100111.81;;;13.89;60.17
72548;BME280;60570;50.848;6.776;2023-03-19T03:25:12;100108.28;;;13.92;60.33
72548;BME280;60570;50.848;6.776;2023-03-19T03:26:13;100110.72;;;13.94;60.26
72548;BME280;60570;50.848;6.776;2023-03-19T03:27:13;100113.13;;;13.95;59.90
72548;BME280;60570;50.848;6.776;2023-03-19T03:28:13;100114.09;;;13.84;60.57
72548;BME280;60570;50.848;6.776;2023-03-19T03:29:14;100115.03;;;13.91;60.41
72548;BME280;60570;50.848;6.776;2023-03-19T03:30:14;100117.47;;;13.93;60.34
72548;BME280;60570;50.848;6.776;2023-03-19T03:31:15;100114.53;;;13.86;60.55
72548;BME280;60570;50.848;6.776;2023-03-19T03:32:15;100123.78;;;13.90;60.49
72548;BME280;60570;50.848;6.776;2023-03-19T03:33:16;100126.38;;;13.79;60.28
72548;BME280;60570;50.848;6.776;2023-03-19T03:34:16;100135.78;;;13.90;60.02
72548;BME280;60570;50.848;6.776;2023-03-19T03:35:17;100126.56;;;13.90;60.35
72548;BME280;60570;50.848;6.776;2023-03-19T03:36:21;100130.19;;;13.90;60.40
72548;BME280;60570;50.848;6.776;2023-03-19T03:37:21;100138.94;;;13.89;60.26
72548;BME280;60570;50.848;6.776;2023-03-19T03:38:22;100130.19;;;13.90;60.21
72548;BME280;60570;50.848;6.776;2023-03-19T03:39:22;100133.34;;;13.89;60.01
72548;BME280;60570;50.848;6.776;2023-03-19T03:40:23;100141.28;;;13.87;60.25
72548;BME280;60570;50.848;6.776;2023-03-19T03:41:24;100139.97;;;13.81;60.31
72548;BME280;60570;50.848;6.776;2023-03-19T03:42:24;100144.00;;;13.83;60.31
72548;BME280;60570;50.848;6.776;2023-03-19T03:43:24;100129.50;;;13.78;60.71
72548;BME280;60570;50.848;6.776;2023-03-19T03:44:25;100129.44;;;13.74;60.66
72548;BME280;60570;50.848;6.776;2023-03-19T03:45:25;100132.66;;;13.76;60.55
72548;BME280;60570;50.848;6.776;2023-03-19T03:46:26;100140.41;;;13.83;60.66
72548;BME280;60570;50.848;6.776;2023-03-19T03:47:26;100133.34;;;13.89;60.34
72548;BME280;60570;50.848;6.776;2023-03-19T03:48:27;100133.28;;;13.85;60.17
72548;BME280;60570;50.848;6.776;2023-03-19T03:49:27;100136.78;;;13.82;60.19
72548;BME280;60570;50.848;6.776;2023-03-19T03:50:27;100146.25;;;13.78;60.39
72548;BME280;60570;50.848;6.776;2023-03-19T03:51:28;100137.97;;;13.81;60.22
72548;BME280;60570;50.848;6.776;2023-03-19T03:52:28;100139.44;;;13.75;60.43
72548;BME280;60570;50.848;6.776;2023-03-19T03:53:30;100143.19;;;13.83;60.53
72548;BME280;60570;50.848;6.776;2023-03-19T03:54:30;100141.13;;;13.80;60.17
72548;BME280;60570;50.848;6.776;2023-03-19T03:55:31;100136.28;;;13.77;60.50
72548;BME280;60570;50.848;6.776;2023-03-19T03:56:32;100133.41;;;13.73;60.76
72548;BME280;60570;50.848;6.776;2023-03-19T03:57:32;100133.56;;;13.80;60.21
72548;BME280;60570;50.848;6.776;2023-03-19T03:58:32;100126.72;;;13.78;60.38
72548;BME280;60570;50.848;6.776;2023-03-19T03:59:33;100130.94;;;13.87;60.13
72548;BME280;60570;50.848;6.776;2023-03-19T04:00:33;100121.75;;;13.87;60.37
72548;BME280;60570;50.848;6.776;2023-03-19T04:01:33;100135.41;;;13.92;60.08
72548;BME280;60570;50.848;6.776;2023-03-19T04:02:34;100137.16;;;13.81;60.36
72548;BME280;60570;50.848;6.776;2023-03-19T04:03:34;100136.53;;;13.87;60.10
72548;BME280;60570;50.848;6.776;2023-03-19T04:04:35;100127.69;;;13.85;60.11
72548;BME280;60570;50.848;6.776;2023-03-19T04:05:35;100131.28;;;13.86;59.87
72548;BME280;60570;50.848;6.776;2023-03-19T04:06:36;100130.06;;;13.83;60.03
72548;BME280;60570;50.848;6.776;2023-03-19T04:07:37;100126.38;;;13.79;60.21
72548;BME280;60570;50.848;6.776;2023-03-19T04:08:37;100132.91;;;13.87;60.04
72548;BME280;60570;50.848;6.776;2023-03-19T04:09:38;100134.31;;;13.77;60.33
72548;BME280;60570;50.848;6.776;2023-03-19T04:10:39;100138.63;;;13.75;60.52
72548;BME280;60570;50.848;6.776;2023-03-19T04:11:40;100135.53;;;13.80;60.09
72548;BME280;60570;50.848;6.776;2023-03-19T04:12:40;100143.47;;;13.78;60.44
72548;BME280;60570;50.848;6.776;2023-03-19T04:13:41;100143.47;;;13.78;60.36
72548;BME280;60570;50.848;6.776;2023-03-19T04:14:41;100128.34;;;13.79;60.26
72548;BME280;60570;50.848;6.776;2023-03-19T04:15:42;100139.06;;;13.77;60.47
72548;BME280;60570;50.848;6.776;2023-03-19T04:16:42;100135.38;;;13.73;60.29
72548;BME280;60570;50.848;6.776;2023-03-19T04:17:43;100139.78;;;13.74;60.35
72548;BME280;60570;50.848;6.776;2023-03-19T04:18:43;100132.66;;;13.76;60.50
72548;BME280;60570;50.848;6.776;2023-03-19T04:19:43;100131.84;;;13.76;60.05
72548;BME280;60570;50.848;6.776;2023-03-19T04:20:44;100140.16;;;13.72;60.45
72548;BME280;60570;50.848;6.776;2023-03-19T04:21:44;100141.28;;;13.68;60.39
72548;BME280;60570;50.848;6.776;2023-03-19T04:22:45;100136.03;;;13.66;60.35
72548;BME280;60570;50.848;6.776;2023-03-19T04:23:45;100143.19;;;13.64;60.87
72548;BME280;60570;50.848;6.776;2023-03-19T04:24:46;100139.63;;;13.67;60.61
72548;BME280;60570;50.848;6.776;2023-03-19T04:25:46;100142.00;;;13.65;60.63
72548;BME280;60570;50.848;6.776;2023-03-19T04:26:47;100140.97;;;13.73;60.43
72548;BME280;60570;50.848;6.776;2023-03-19T04:27:48;100143.31;;;13.71;60.50
72548;BME280;60570;50.848;6.776;2023-03-19T04:28:49;100141.63;;;13.66;60.72
72548;BME280;60570;50.848;6.776;2023-03-19T04:29:49;100136.84;;;13.67;60.43
72548;BME280;60570;50.848;6.776;2023-03-19T04:30:50;100137.28;;;13.69;60.56
72548;BME280;60570;50.848;6.776;2023-03-19T04:31:50;100146.84;;;13.68;60.58
72548;BME280;60570;50.848;6.776;2023-03-19T04:32:51;100135.91;;;13.78;60.35
72548;BME280;60570;50.848;6.776;2023-03-19T04:33:52;100145.28;;;13.70;60.34
72548;BME280;60570;50.848;6.776;2023-03-19T04:34:53;100146.47;;;13.69;60.26
72548;BME280;60570;50.848;6.776;2023-03-19T04:35:53;100146.75;;;13.64;60.69
72548;BME280;60570;50.848;6.776;2023-03-19T04:36:54;100144.78;;;13.65;60.63
72548;BME280;60570;50.848;6.776;2023-03-19T04:37:55;100144.34;;;13.63;60.45
72548;BME280;60570;50.848;6.776;2023-03-19T04:38:55;100144.69;;;13.61;60.65
72548;BME280;60570;50.848;6.776;2023-03-19T04:39:56;100146.97;;;13.56;60.76
72548;BME280;60570;50.848;6.776;2023-03-19T04:40:57;100139.31;;;13.52;60.78
72548;BME280;60570;50.848;6.776;2023-03-19T04:41:57;100147.56;;;13.65;60.67
72548;BME280;60570;50.848;6.776;2023-03-19T04:42:57;100151.19;;;13.65;60.54
72548;BME280;60570;50.848;6.776;2023-03-19T04:43:58;100144.25;;;13.59;60.74
72548;BME280;60570;50.848;6.776;2023-03-19T04:44:58;100148.75;;;13.64;60.64
72548;BME280;60570;50.848;6.776;2023-03-19T04:45:59;100148.00;;;13.67;60.51
72548;BME280;60570;50.848;6.776;2023-03-19T04:46:59;100153.53;;;13.63;60.73
72548;BME280;60570;50.848;6.776;2023-03-19T04:48:00;100155.94;;;13.65;60.31
72548;BME280;60570;50.848;6.776;2023-03-19T04:49:00;100154.41;;;13.67;60.64
72548;BME280;60570;50.848;6.776;2023-03-19T04:50:01;100155.22;;;13.68;60.13
72548;BME280;60570;50.848;6.776;2023-03-19T04:51:02;100155.81;;;13.77;59.93
72548;BME280;60570;50.848;6.776;2023-03-19T04:52:03;100150.88;;;13.70;60.46
72548;BME280;60570;50.848;6.776;2023-03-19T04:53:03;100152.97;;;13.73;60.13
72548;BME280;60570;50.848;6.776;2023-03-19T04:54:04;100148.53;;;13.72;60.17
72548;BME280;60570;50.848;6.776;2023-03-19T04:55:05;100156.00;;;13.68;60.43
72548;BME280;60570;50.848;6.776;2023-03-19T04:56:06;100159.63;;;13.69;60.38
72548;BME280;60570;50.848;6.776;2023-03-19T04:57:07;100156.75;;;13.65;60.41
72548;BME280;60570;50.848;6.776;2023-03-19T04:58:07;100166.47;;;13.71;60.18
72548;BME280;60570;50.848;6.776;2023-03-19T04:59:08;100155.31;;;13.71;60.12
72548;BME280;60570;50.848;6.776;2023-03-19T05:00:09;100157.78;;;13.76;59.93
72548;BME280;60570;50.848;6.776;2023-03-19T05:01:10;100152.78;;;13.66;60.41
72548;BME280;60570;50.848;6.776;2023-03-19T05:02:11;100156.53;;;13.74;60.32
72548;BME280;60570;50.848;6.776;2023-03-19T05:03:11;100155.94;;;13.65;60.41
72548;BME280;60570;50.848;6.776;2023-03-19T05:04:12;100159.03;;;13.60;60.51
72548;BME280;60570;50.848;6.776;2023-03-19T05:05:12;100154.34;;;13.64;60.37
72548;BME280;60570;50.848;6.776;2023-03-19T05:06:12;100157.66;;;13.69;60.11
72548;BME280;60570;50.848;6.776;2023-03-19T05:07:13;100168.13;;;13.57;60.66
72548;BME280;60570;50.848;6.776;2023-03-19T05:08:13;100165.50;;;13.64;60.37
72548;BME280;60570;50.848;6.776;2023-03-19T05:09:13;100179.91;;;13.66;60.28
72548;BME280;60570;50.848;6.776;2023-03-19T05:10:14;100171.16;;;13.67;60.11
72548;BME280;60570;50.848;6.776;2023-03-19T05:11:14;100172.25;;;13.63;60.37
72548;BME280;60570;50.848;6.776;2023-03-19T05:12:15;100173.50;;;13.65;60.50
72548;BME280;60570;50.848;6.776;2023-03-19T05:13:16;100177.47;;;13.64;60.25
72548;BME280;60570;50.848;6.776;2023-03-19T05:14:16;100169.53;;;13.66;60.30
72548;BME280;60570;50.848;6.776;2023-03-19T05:15:16;100166.75;;;13.66;60.17
72548;BME280;60570;50.848;6.776;2023-03-19T05:16:17;100176.22;;;13.62;60.52
72548;BME280;60570;50.848;6.776;2023-03-19T05:17:17;100172.31;;;13.66;60.65
72548;BME280;60570;50.848;6.776;2023-03-19T05:18:17;100171.44;;;13.62;60.61
72548;BME280;60570;50.848;6.776;2023-03-19T05:19:17;100177.38;;;13.61;60.59
72548;BME280;60570;50.848;6.776;2023-03-19T05:20:18;100169.44;;;13.63;60.53